sensor_id;sensor_type;location;lat;lon;timestamp;pressure;altitude;pressure_sealevel;temperature;humidity
72942;BME280;69665;55.822;37.330;2024-02-15T00:02:21;100884.59;;;-8.17;73.85
72942;BME280;69665;55.822;37.330;2024-02-15T00:04:47;100909.00;;;-8.07;72.96
72942;BME280;69665;55.822;37.330;2024-02-15T00:07:13;100887.25;;;-8.15;72.34
72942;BME280;69665;55.822;37.330;2024-02-15T00:09:38;100885.22;;;-8.21;72.44
72942;BME280;69665;55.822;37.330;2024-02-15T00:12:04;100882.84;;;-8.18;73.85
72942;BME280;69665;55.822;37.330;2024-02-15T00:14:30;100891.91;;;-8.08;73.42
72942;BME280;69665;55.822;37.330;2024-02-15T00:16:57;100883.09;;;-8.13;73.25
72942;BME280;69665;55.822;37.330;2024-02-15T00:19:23;100905.97;;;-8.00;74.04
72942;BME280;69665;55.822;37.330;2024-02-15T00:21:49;100867.69;;;-8.15;72.62
72942;BME280;69665;55.822;37.330;2024-02-15T00:24:15;100849.28;;;-8.24;74.37
72942;BME280;69665;55.822;37.330;2024-02-15T00:26:41;100880.09;;;-8.06;73.39
72942;BME280;69665;55.822;37.330;2024-02-15T00:29:08;100865.13;;;-8.15;73.36
72942;BME280;69665;55.822;37.330;2024-02-15T00:31:34;100872.44;;;-8.21;71.77
72942;BME280;69665;55.822;37.330;2024-02-15T00:34:04;100877.47;;;-8.08;73.35
72942;BME280;69665;55.822;37.330;2024-02-15T00:36:29;100872.00;;;-8.14;73.99
72942;BME280;69665;55.822;37.330;2024-02-15T00:38:55;100875.34;;;-8.30;70.74
72942;BME280;69665;55.822;37.330;2024-02-15T00:41:21;100889.09;;;-8.28;73.98
72942;BME280;69665;55.822;37.330;2024-02-15T00:43:47;100887.41;;;-8.27;74.45
72942;BME280;69665;55.822;37.330;2024-02-15T00:46:13;100875.44;;;-8.28;73.83
72942;BME280;69665;55.822;37.330;2024-02-15T00:48:39;100877.34;;;-8.40;73.00
72942;BME280;69665;55.822;37.330;2024-02-15T00:51:06;100885.00;;;-8.40;72.31
72942;BME280;69665;55.822;37.330;2024-02-15T00:53:33;100868.34;;;-8.48;72.83
72942;BME280;69665;55.822;37.330;2024-02-15T00:55:58;100854.09;;;-8.45;74.44
72942;BME280;69665;55.822;37.330;2024-02-15T00:58:24;100872.41;;;-8.37;73.65
72942;BME280;69665;55.822;37.330;2024-02-15T01:00:53;100832.16;;;-8.56;74.60
72942;BME280;69665;55.822;37.330;2024-02-15T01:03:19;100874.19;;;-8.36;74.03
72942;BME280;69665;55.822;37.330;2024-02-15T01:05:45;100871.63;;;-8.36;72.52
72942;BME280;69665;55.822;37.330;2024-02-15T01:08:11;100876.28;;;-8.44;72.75
72942;BME280;69665;55.822;37.330;2024-02-15T01:10:38;100866.59;;;-8.49;73.56
72942;BME280;69665;55.822;37.330;2024-02-15T01:13:03;100875.75;;;-8.38;74.17
72942;BME280;69665;55.822;37.330;2024-02-15T01:15:30;100870.66;;;-8.38;72.66
72942;BME280;69665;55.822;37.330;2024-02-15T01:17:55;100871.09;;;-8.45;73.93
72942;BME280;69665;55.822;37.330;2024-02-15T01:20:21;100877.78;;;-8.33;75.53
72942;BME280;69665;55.822;37.330;2024-02-15T01:22:47;100866.81;;;-8.30;74.85
72942;BME280;69665;55.822;37.330;2024-02-15T01:25:13;100879.63;;;-8.45;73.00
72942;BME280;69665;55.822;37.330;2024-02-15T01:27:41;100883.59;;;-8.35;74.38
72942;BME280;69665;55.822;37.330;2024-02-15T01:30:08;100839.75;;;-8.43;75.47
72942;BME280;69665;55.822;37.330;2024-02-15T01:32:34;100834.28;;;-8.49;73.41
72942;BME280;69665;55.822;37.330;2024-02-15T01:35:00;100866.88;;;-8.29;75.33
72942;BME280;69665;55.822;37.330;2024-02-15T01:37:25;100883.63;;;-8.19;75.17
72942;BME280;69665;55.822;37.330;2024-02-15T01:39:51;100857.56;;;-8.28;75.61
72942;BME280;69665;55.822;37.330;2024-02-15T01:42:17;100876.31;;;-8.13;75.35
72942;BME280;69665;55.822;37.330;2024-02-15T01:44:43;100873.50;;;-8.17;73.70
72942;BME280;69665;55.822;37.330;2024-02-15T01:47:17;100885.81;;;-8.25;74.11
72942;BME280;69665;55.822;37.330;2024-02-15T01:49:45;100880.06;;;-8.37;72.72
72942;BME280;69665;55.822;37.330;2024-02-15T01:52:11;100882.63;;;-8.37;72.99
72942;BME280;69665;55.822;37.330;2024-02-15T01:54:39;100862.28;;;-8.36;73.80
72942;BME280;69665;55.822;37.330;2024-02-15T01:57:05;100888.91;;;-8.31;73.05
72942;BME280;69665;55.822;37.330;2024-02-15T01:59:32;100856.81;;;-8.42;74.45
72942;BME280;69665;55.822;37.330;2024-02-15T02:01:58;100847.75;;;-8.51;71.78
72942;BME280;69665;55.822;37.330;2024-02-15T02:04:23;100891.16;;;-8.37;74.28
72942;BME280;69665;55.822;37.330;2024-02-15T02:06:50;100906.22;;;-8.41;72.04
72942;BME280;69665;55.822;37.330;2024-02-15T02:09:16;100870.28;;;-8.44;73.04
72942;BME280;69665;55.822;37.330;2024-02-15T02:11:44;100873.63;;;-8.45;73.92
72942;BME280;69665;55.822;37.330;2024-02-15T02:14:11;100881.66;;;-8.39;73.60
72942;BME280;69665;55.822;37.330;2024-02-15T02:16:37;100859.47;;;-8.55;72.76
72942;BME280;69665;55.822;37.330;2024-02-15T02:19:05;100863.50;;;-8.44;72.73
72942;BME280;69665;55.822;37.330;2024-02-15T02:21:35;100896.63;;;-8.45;72.80
72942;BME280;69665;55.822;37.330;2024-02-15T02:24:12;100870.13;;;-8.62;74.34
72942;BME280;69665;55.822;37.330;2024-02-15T02:26:38;100857.97;;;-8.51;75.38
72942;BME280;69665;55.822;37.330;2024-02-15T02:29:04;100860.44;;;-8.68;73.61
72942;BME280;69665;55.822;37.330;2024-02-15T02:31:34;100886.41;;;-8.45;73.26
72942;BME280;69665;55.822;37.330;2024-02-15T02:34:00;100852.97;;;-8.65;73.64
72942;BME280;69665;55.822;37.330;2024-02-15T02:36:26;100872.56;;;-8.49;74.13
72942;BME280;69665;55.822;37.330;2024-02-15T02:38:52;100881.56;;;-8.70;73.47
72942;BME280;69665;55.822;37.330;2024-02-15T02:41:18;100884.84;;;-8.58;73.64
72942;BME280;69665;55.822;37.330;2024-02-15T02:43:48;100889.41;;;-8.67;73.40
72942;BME280;69665;55.822;37.330;2024-02-15T02:46:14;100892.22;;;-8.63;73.25
72942;BME280;69665;55.822;37.330;2024-02-15T02:48:40;100890.56;;;-8.62;73.66
72942;BME280;69665;55.822;37.330;2024-02-15T02:51:07;100915.81;;;-8.67;73.15
72942;BME280;69665;55.822;37.330;2024-02-15T02:53:33;100896.34;;;-8.65;73.68
72942;BME280;69665;55.822;37.330;2024-02-15T02:55:59;100860.50;;;-8.81;74.12
72942;BME280;69665;55.822;37.330;2024-02-15T02:58:25;100894.78;;;-8.63;73.83
72942;BME280;69665;55.822;37.330;2024-02-15T03:00:51;100916.25;;;-8.59;74.16
72942;BME280;69665;55.822;37.330;2024-02-15T03:03:17;100894.97;;;-8.60;73.23
72942;BME280;69665;55.822;37.330;2024-02-15T03:05:48;100894.59;;;-8.66;73.61
72942;BME280;69665;55.822;37.330;2024-02-15T03:08:14;100898.72;;;-8.53;73.44
72942;BME280;69665;55.822;37.330;2024-02-15T03:10:40;100889.28;;;-8.54;74.62
72942;BME280;69665;55.822;37.330;2024-02-15T03:13:06;100900.22;;;-8.57;73.98
72942;BME280;69665;55.822;37.330;2024-02-15T03:15:35;100897.66;;;-8.57;73.78
72942;BME280;69665;55.822;37.330;2024-02-15T03:18:02;100920.47;;;-8.45;73.17
72942;BME280;69665;55.822;37.330;2024-02-15T03:20:33;100903.72;;;-8.54;74.02
72942;BME280;69665;55.822;37.330;2024-02-15T03:23:01;100904.78;;;-8.51;72.78
72942;BME280;69665;55.822;37.330;2024-02-15T03:25:30;100906.13;;;-8.58;73.23
72942;BME280;69665;55.822;37.330;2024-02-15T03:27:58;100907.81;;;-8.58;73.08
72942;BME280;69665;55.822;37.330;2024-02-15T03:30:33;100893.63;;;-8.68;73.23
72942;BME280;69665;55.822;37.330;2024-02-15T03:33:02;100894.31;;;-8.70;73.79
72942;BME280;69665;55.822;37.330;2024-02-15T03:35:30;100928.22;;;-8.58;73.48
72942;BME280;69665;55.822;37.330;2024-02-15T03:37:57;100910.09;;;-8.63;73.97
72942;BME280;69665;55.822;37.330;2024-02-15T03:40:23;100905.31;;;-8.71;72.61
72942;BME280;69665;55.822;37.330;2024-02-15T03:42:55;100934.47;;;-8.68;72.27
72942;BME280;69665;55.822;37.330;2024-02-15T03:45:21;100920.31;;;-8.63;73.66
72942;BME280;69665;55.822;37.330;2024-02-15T03:47:54;100914.59;;;-8.59;73.29
72942;BME280;69665;55.822;37.330;2024-02-15T03:50:21;100910.88;;;-8.64;73.12
72942;BME280;69665;55.822;37.330;2024-02-15T03:52:48;100901.38;;;-8.66;73.36
72942;BME280;69665;55.822;37.330;2024-02-15T03:55:13;100931.03;;;-8.53;72.76
72942;BME280;69665;55.822;37.330;2024-02-15T03:57:40;100939.47;;;-8.54;72.50
72942;BME280;69665;55.822;37.330;2024-02-15T04:00:12;100952.25;;;-8.54;73.71
72942;BME280;69665;55.822;37.330;2024-02-15T04:02:39;100945.53;;;-8.67;71.90
72942;BME280;69665;55.822;37.330;2024-02-15T04:05:09;100929.59;;;-8.78;72.25
72942;BME280;69665;55.822;37.330;2024-02-15T04:07:37;100931.72;;;-8.71;72.80
72942;BME280;69665;55.822;37.330;2024-02-15T04:10:04;100941.13;;;-8.70;73.86
72942;BME280;69665;55.822;37.330;2024-02-15T04:12:40;100933.75;;;-8.65;73.16
72942;BME280;69665;55.822;37.330;2024-02-15T04:15:08;100933.25;;;-8.60;73.76
72942;BME280;69665;55.822;37.330;2024-02-15T04:17:38;100909.72;;;-8.69;73.06
72942;BME280;69665;55.822;37.330;2024-02-15T04:20:04;100925.31;;;-8.64;73.08
72942;BME280;69665;55.822;37.330;2024-02-15T04:22:33;100910.31;;;-8.73;73.64
72942;BME280;69665;55.822;37.330;2024-02-15T04:25:06;100930.78;;;-8.58;73.79
72942;BME280;69665;55.822;37.330;2024-02-15T04:27:33;100927.06;;;-8.63;73.24
72942;BME280;69665;55.822;37.330;2024-02-15T04:29:59;100904.00;;;-8.65;74.28
72942;BME280;69665;55.822;37.330;2024-02-15T04:32:24;100918.53;;;-8.64;72.46
72942;BME280;69665;55.822;37.330;2024-02-15T04:34:50;100923.19;;;-8.57;74.02
72942;BME280;69665;55.822;37.330;2024-02-15T04:37:16;100912.66;;;-8.63;73.18
72942;BME280;69665;55.822;37.330;2024-02-15T04:39:43;100934.56;;;-8.51;73.15
72942;BME280;69665;55.822;37.330;2024-02-15T04:42:09;100900.22;;;-8.71;73.58
72942;BME280;69665;55.822;37.330;2024-02-15T04:44:38;100938.78;;;-8.52;73.46
72942;BME280;69665;55.822;37.330;2024-02-15T04:47:04;100943.47;;;-8.60;72.75
72942;BME280;69665;55.822;37.330;2024-02-15T04:49:31;100926.09;;;-8.65;73.75
72942;BME280;69665;55.822;37.330;2024-02-15T04:51:56;100917.56;;;-8.66;74.29
72942;BME280;69665;55.822;37.330;2024-02-15T04:54:29;100944.16;;;-8.47;73.78
72942;BME280;69665;55.822;37.330;2024-02-15T04:56:55;100917.84;;;-8.61;73.98
72942;BME280;69665;55.822;37.330;2024-02-15T04:59:22;100924.94;;;-8.56;73.19
72942;BME280;69665;55.822;37.330;2024-02-15T05:01:54;100934.81;;;-8.47;73.80
72942;BME280;69665;55.822;37.330;2024-02-15T05:04:19;100936.88;;;-8.41;73.31
72942;BME280;69665;55.822;37.330;2024-02-15T05:06:45;100961.25;;;-8.32;73.61
72942;BME280;69665;55.822;37.330;2024-02-15T05:09:11;100956.97;;;-8.33;73.87
72942;BME280;69665;55.822;37.330;2024-02-15T05:11:37;100965.72;;;-8.28;74.35
72942;BME280;69665;55.822;37.330;2024-02-15T05:14:06;100951.50;;;-8.39;73.44
72942;BME280;69665;55.822;37.330;2024-02-15T05:16:33;101001.66;;;-8.25;73.57
72942;BME280;69665;55.822;37.330;2024-02-15T05:18:59;100985.97;;;-8.31;73.84
72942;BME280;69665;55.822;37.330;2024-02-15T05:21:25;100992.22;;;-8.26;73.70
72942;BME280;69665;55.822;37.330;2024-02-15T05:23:50;100960.13;;;-8.37;73.21
72942;BME280;69665;55.822;37.330;2024-02-15T05:26:18;100990.53;;;-8.25;73.44
72942;BME280;69665;55.822;37.330;2024-02-15T05:28:51;100992.31;;;-8.24;72.78
72942;BME280;69665;55.822;37.330;2024-02-15T05:31:20;100981.72;;;-8.30;73.25
72942;BME280;69665;55.822;37.330;2024-02-15T05:33:46;100997.78;;;-8.18;73.50
72942;BME280;69665;55.822;37.330;2024-02-15T05:36:17;100980.59;;;-8.21;73.97
72942;BME280;69665;55.822;37.330;2024-02-15T05:38:51;100976.09;;;-8.25;73.75
72942;BME280;69665;55.822;37.330;2024-02-15T05:41:17;100974.44;;;-8.24;73.01
72942;BME280;69665;55.822;37.330;2024-02-15T05:43:42;100992.84;;;-8.15;73.62
72942;BME280;69665;55.822;37.330;2024-02-15T05:46:09;100999.34;;;-8.05;73.50
72942;BME280;69665;55.822;37.330;2024-02-15T05:48:36;101008.97;;;-8.01;73.11
72942;BME280;69665;55.822;37.330;2024-02-15T05:51:06;100991.38;;;-8.11;73.32
72942;BME280;69665;55.822;37.330;2024-02-15T05:53:32;100990.31;;;-8.15;73.12
72942;BME280;69665;55.822;37.330;2024-02-15T05:56:05;101023.69;;;-7.97;72.91
72942;BME280;69665;55.822;37.330;2024-02-15T05:58:31;101003.25;;;-7.97;72.53
72942;BME280;69665;55.822;37.330;2024-02-15T06:00:58;100974.28;;;-8.12;73.91
72942;BME280;69665;55.822;37.330;2024-02-15T06:03:30;101008.00;;;-7.89;73.19
72942;BME280;69665;55.822;37.330;2024-02-15T06:05:57;100998.13;;;-7.97;72.85
72942;BME280;69665;55.822;37.330;2024-02-15T06:08:26;101014.00;;;-8.03;73.13
72942;BME280;69665;55.822;37.330;2024-02-15T06:10:53;101023.59;;;-7.99;73.75
72942;BME280;69665;55.822;37.330;2024-02-15T06:13:21;100987.94;;;-8.12;74.03
72942;BME280;69665;55.822;37.330;2024-02-15T06:15:47;101001.69;;;-8.10;72.43
72942;BME280;69665;55.822;37.330;2024-02-15T06:18:18;101008.25;;;-7.99;72.15
72942;BME280;69665;55.822;37.330;2024-02-15T06:20:53;101009.00;;;-7.87;73.20
72942;BME280;69665;55.822;37.330;2024-02-15T06:23:20;101005.19;;;-7.93;73.15
72942;BME280;69665;55.822;37.330;2024-02-15T06:25:46;101008.34;;;-7.97;73.58
72942;BME280;69665;55.822;37.330;2024-02-15T06:28:16;101013.66;;;-7.94;72.68
72942;BME280;69665;55.822;37.330;2024-02-15T06:31:08;100998.13;;;-7.97;73.30
72942;BME280;69665;55.822;37.330;2024-02-15T06:33:53;100983.38;;;-8.32;72.02
72942;BME280;69665;55.822;37.330;2024-02-15T06:36:59;101022.81;;;-8.12;73.15
72942;BME280;69665;55.822;37.330;2024-02-15T06:39:43;101007.94;;;-8.34;72.25
72942;BME280;69665;55.822;37.330;2024-02-15T06:42:13;101027.50;;;-8.35;71.88
72942;BME280;69665;55.822;37.330;2024-02-15T06:44:44;101030.19;;;-8.46;71.77
72942;BME280;69665;55.822;37.330;2024-02-15T06:47:10;101024.88;;;-8.49;72.37
72942;BME280;69665;55.822;37.330;2024-02-15T06:49:39;101044.59;;;-8.34;72.86
72942;BME280;69665;55.822;37.330;2024-02-15T06:52:08;101010.13;;;-8.40;72.97
72942;BME280;69665;55.822;37.330;2024-02-15T06:54:34;101043.22;;;-8.27;72.75
72942;BME280;69665;55.822;37.330;2024-02-15T06:57:01;101044.28;;;-8.24;72.45
72942;BME280;69665;55.822;37.330;2024-02-15T06:59:30;101023.28;;;-8.34;72.63
72942;BME280;69665;55.822;37.330;2024-02-15T07:02:00;101062.84;;;-8.26;72.91
72942;BME280;69665;55.822;37.330;2024-02-15T07:04:27;101014.69;;;-8.20;73.39
72942;BME280;69665;55.822;37.330;2024-02-15T07:06:53;101034.09;;;-8.09;72.68
72942;BME280;69665;55.822;37.330;2024-02-15T07:09:20;101014.44;;;-8.10;72.22
72942;BME280;69665;55.822;37.330;2024-02-15T07:11:48;101020.69;;;-8.05;73.08
72942;BME280;69665;55.822;37.330;2024-02-15T07:14:13;101029.16;;;-7.91;72.35
72942;BME280;69665;55.822;37.330;2024-02-15T07:16:44;101022.47;;;-7.89;71.91
72942;BME280;69665;55.822;37.330;2024-02-15T07:19:10;101048.31;;;-7.84;72.74
72942;BME280;69665;55.822;37.330;2024-02-15T07:21:35;101031.63;;;-7.78;72.92
72942;BME280;69665;55.822;37.330;2024-02-15T07:24:01;101056.84;;;-7.69;72.43
72942;BME280;69665;55.822;37.330;2024-02-15T07:26:27;101036.72;;;-7.78;72.68
72942;BME280;69665;55.822;37.330;2024-02-15T07:28:55;101019.91;;;-7.60;73.31
72942;BME280;69665;55.822;37.330;2024-02-15T07:31:23;101060.00;;;-7.44;72.23
72942;BME280;69665;55.822;37.330;2024-02-15T07:33:50;101026.75;;;-7.44;72.32
72942;BME280;69665;55.822;37.330;2024-02-15T07:36:22;101051.22;;;-7.18;73.58
72942;BME280;69665;55.822;37.330;2024-02-15T07:38:52;101032.94;;;-7.24;72.62
72942;BME280;69665;55.822;37.330;2024-02-15T07:41:26;101033.72;;;-7.10;73.89
72942;BME280;69665;55.822;37.330;2024-02-15T07:43:52;101043.66;;;-7.00;73.88
72942;BME280;69665;55.822;37.330;2024-02-15T07:46:20;101043.81;;;-6.97;72.95
72942;BME280;69665;55.822;37.330;2024-02-15T07:48:47;101052.19;;;-7.00;72.67
72942;BME280;69665;55.822;37.330;2024-02-15T07:51:14;101052.53;;;-6.94;73.01
72942;BME280;69665;55.822;37.330;2024-02-15T07:53:40;101061.63;;;-6.84;73.92
72942;BME280;69665;55.822;37.330;2024-02-15T07:56:08;101065.44;;;-6.92;72.95
72942;BME280;69665;55.822;37.330;2024-02-15T07:58:38;101027.09;;;-7.07;72.54
72942;BME280;69665;55.822;37.330;2024-02-15T08:01:06;101058.19;;;-6.85;73.71
72942;BME280;69665;55.822;37.330;2024-02-15T08:03:32;101062.09;;;-6.75;74.00
72942;BME280;69665;55.822;37.330;2024-02-15T08:05:58;101048.66;;;-6.87;73.14
72942;BME280;69665;55.822;37.330;2024-02-15T08:08:23;101062.84;;;-6.77;72.77
72942;BME280;69665;55.822;37.330;2024-02-15T08:10:49;101046.00;;;-6.89;73.86
72942;BME280;69665;55.822;37.330;2024-02-15T08:13:16;101063.78;;;-6.75;73.00
72942;BME280;69665;55.822;37.330;2024-02-15T08:15:43;101040.88;;;-6.89;73.24
72942;BME280;69665;55.822;37.330;2024-02-15T08:18:10;101067.78;;;-6.80;73.13
72942;BME280;69665;55.822;37.330;2024-02-15T08:20:38;101054.56;;;-6.88;73.37
72942;BME280;69665;55.822;37.330;2024-02-15T08:23:06;101052.72;;;-6.91;72.96
72942;BME280;69665;55.822;37.330;2024-02-15T08:25:31;101044.25;;;-7.21;72.47
72942;BME280;69665;55.822;37.330;2024-02-15T08:27:57;101053.75;;;-7.03;72.90
72942;BME280;69665;55.822;37.330;2024-02-15T08:30:22;101072.84;;;-6.97;72.89
72942;BME280;69665;55.822;37.330;2024-02-15T08:32:48;101059.34;;;-6.94;73.38
72942;BME280;69665;55.822;37.330;2024-02-15T08:35:14;101064.19;;;-6.84;72.96
72942;BME280;69665;55.822;37.330;2024-02-15T08:37:40;101075.31;;;-6.98;72.92
72942;BME280;69665;55.822;37.330;2024-02-15T08:40:10;101047.81;;;-7.02;72.60
72942;BME280;69665;55.822;37.330;2024-02-15T08:42:40;101072.06;;;-6.96;73.11
72942;BME280;69665;55.822;37.330;2024-02-15T08:45:07;101099.03;;;-7.02;72.03
72942;BME280;69665;55.822;37.330;2024-02-15T08:47:36;101064.53;;;-7.09;72.96
72942;BME280;69665;55.822;37.330;2024-02-15T08:50:03;101066.09;;;-7.11;72.23
72942;BME280;69665;55.822;37.330;2024-02-15T08:52:29;101062.06;;;-7.22;72.92
72942;BME280;69665;55.822;37.330;2024-02-15T08:54:54;101087.13;;;-7.16;73.00
72942;BME280;69665;55.822;37.330;2024-02-15T08:57:23;101108.31;;;-7.34;71.46
72942;BME280;69665;55.822;37.330;2024-02-15T08:59:49;101084.88;;;-7.41;71.82
72942;BME280;69665;55.822;37.330;2024-02-15T09:02:17;101073.31;;;-7.49;71.48
72942;BME280;69665;55.822;37.330;2024-02-15T09:04:43;101083.28;;;-7.39;72.94
72942;BME280;69665;55.822;37.330;2024-02-15T09:07:08;101077.28;;;-7.40;73.36
72942;BME280;69665;55.822;37.330;2024-02-15T09:09:35;101098.69;;;-7.53;71.61
72942;BME280;69665;55.822;37.330;2024-02-15T09:12:03;101080.47;;;-7.59;72.23
72942;BME280;69665;55.822;37.330;2024-02-15T09:14:34;101077.44;;;-7.52;72.12
72942;BME280;69665;55.822;37.330;2024-02-15T09:17:02;101083.22;;;-7.56;72.71
72942;BME280;69665;55.822;37.330;2024-02-15T09:19:35;101079.31;;;-7.49;72.41
72942;BME280;69665;55.822;37.330;2024-02-15T09:22:04;101076.38;;;-7.40;72.98
72942;BME280;69665;55.822;37.330;2024-02-15T09:24:32;101064.56;;;-7.38;72.56
72942;BME280;69665;55.822;37.330;2024-02-15T09:27:00;101078.94;;;-7.40;73.11
72942;BME280;69665;55.822;37.330;2024-02-15T09:29:27;101091.69;;;-7.57;72.27
72942;BME280;69665;55.822;37.330;2024-02-15T09:31:55;101095.97;;;-7.70;72.51
72942;BME280;69665;55.822;37.330;2024-02-15T09:34:22;101094.47;;;-7.67;72.17
72942;BME280;69665;55.822;37.330;2024-02-15T09:36:48;101061.75;;;-7.72;71.96
72942;BME280;69665;55.822;37.330;2024-02-15T09:39:13;101108.78;;;-7.56;72.59
72942;BME280;69665;55.822;37.330;2024-02-15T09:41:39;101096.50;;;-7.61;72.66
72942;BME280;69665;55.822;37.330;2024-02-15T09:44:06;101087.75;;;-7.50;72.62
72942;BME280;69665;55.822;37.330;2024-02-15T09:46:36;101058.94;;;-7.62;73.25
72942;BME280;69665;55.822;37.330;2024-02-15T09:49:01;101086.81;;;-7.37;72.61
72942;BME280;69665;55.822;37.330;2024-02-15T09:51:29;101089.00;;;-7.29;73.25
72942;BME280;69665;55.822;37.330;2024-02-15T09:53:57;101084.69;;;-7.44;72.19
72942;BME280;69665;55.822;37.330;2024-02-15T09:56:26;101076.47;;;-7.39;72.65
72942;BME280;69665;55.822;37.330;2024-02-15T09:58:54;101074.63;;;-7.41;72.02
72942;BME280;69665;55.822;37.330;2024-02-15T10:01:23;101072.06;;;-7.41;71.63
72942;BME280;69665;55.822;37.330;2024-02-15T10:03:49;101066.06;;;-7.42;72.46
72942;BME280;69665;55.822;37.330;2024-02-15T10:06:17;101106.19;;;-7.26;72.20
72942;BME280;69665;55.822;37.330;2024-02-15T10:08:44;101084.06;;;-7.40;71.74
72942;BME280;69665;55.822;37.330;2024-02-15T10:11:10;101111.38;;;-7.25;73.45
72942;BME280;69665;55.822;37.330;2024-02-15T10:13:36;101083.81;;;-7.45;72.35
72942;BME280;69665;55.822;37.330;2024-02-15T10:16:16;101104.69;;;-7.23;72.30
72942;BME280;69665;55.822;37.330;2024-02-15T10:18:42;101114.28;;;-7.19;73.07
72942;BME280;69665;55.822;37.330;2024-02-15T10:21:07;101106.44;;;-7.07;71.83
72942;BME280;69665;55.822;37.330;2024-02-15T10:23:33;101096.81;;;-7.11;72.09
72942;BME280;69665;55.822;37.330;2024-02-15T10:25:58;101084.72;;;-7.13;73.11
72942;BME280;69665;55.822;37.330;2024-02-15T10:28:24;101091.75;;;-6.95;73.15
72942;BME280;69665;55.822;37.330;2024-02-15T10:30:50;101099.06;;;-6.86;72.78
72942;BME280;69665;55.822;37.330;2024-02-15T10:33:28;101103.16;;;-6.73;72.33
72942;BME280;69665;55.822;37.330;2024-02-15T10:36:10;101087.47;;;-6.79;73.44
72942;BME280;69665;55.822;37.330;2024-02-15T10:38:41;101097.06;;;-6.75;72.55
72942;BME280;69665;55.822;37.330;2024-02-15T10:41:07;101097.13;;;-6.74;72.55
72942;BME280;69665;55.822;37.330;2024-02-15T10:43:34;101088.28;;;-6.64;73.22
72942;BME280;69665;55.822;37.330;2024-02-15T10:46:02;101092.28;;;-6.69;73.21
72942;BME280;69665;55.822;37.330;2024-02-15T10:48:28;101092.19;;;-6.71;71.48
72942;BME280;69665;55.822;37.330;2024-02-15T10:50:56;101099.88;;;-6.71;71.84
72942;BME280;69665;55.822;37.330;2024-02-15T10:56:17;101067.69;;;-6.82;72.41
72942;BME280;69665;55.822;37.330;2024-02-15T10:58:50;101081.84;;;-6.89;72.30
72942;BME280;69665;55.822;37.330;2024-02-15T11:01:22;101101.38;;;-6.74;72.98
72942;BME280;69665;55.822;37.330;2024-02-15T11:03:51;101125.53;;;-6.86;72.26
72942;BME280;69665;55.822;37.330;2024-02-15T11:06:24;101111.06;;;-7.00;71.30
72942;BME280;69665;55.822;37.330;2024-02-15T11:08:51;101042.16;;;-7.42;72.51
72942;BME280;69665;55.822;37.330;2024-02-15T11:11:18;101114.03;;;-7.08;72.01
72942;BME280;69665;55.822;37.330;2024-02-15T11:13:46;101091.44;;;-7.15;72.85
72942;BME280;69665;55.822;37.330;2024-02-15T11:16:42;101113.41;;;-7.04;71.78
72942;BME280;69665;55.822;37.330;2024-02-15T11:22:09;101096.22;;;-7.22;71.31
72942;BME280;69665;55.822;37.330;2024-02-15T11:24:36;101124.78;;;-7.14;71.61
72942;BME280;69665;55.822;37.330;2024-02-15T11:27:06;101106.00;;;-7.14;72.51
72942;BME280;69665;55.822;37.330;2024-02-15T11:29:52;101124.72;;;-7.15;72.43
72942;BME280;69665;55.822;37.330;2024-02-15T11:35:04;101113.53;;;-7.32;72.62
72942;BME280;69665;55.822;37.330;2024-02-15T11:42:39;101115.38;;;-7.44;73.01
72942;BME280;69665;55.822;37.330;2024-02-15T11:45:08;101120.59;;;-7.43;72.48
72942;BME280;69665;55.822;37.330;2024-02-15T11:47:37;101120.59;;;-7.43;72.53
72942;BME280;69665;55.822;37.330;2024-02-15T11:50:03;101093.97;;;-7.61;72.57
72942;BME280;69665;55.822;37.330;2024-02-15T11:52:28;101128.06;;;-7.46;72.35
72942;BME280;69665;55.822;37.330;2024-02-15T11:55:04;101101.34;;;-7.66;71.55
72942;BME280;69665;55.822;37.330;2024-02-15T11:57:29;101116.78;;;-7.49;72.37
72942;BME280;69665;55.822;37.330;2024-02-15T12:00:33;101131.44;;;-7.47;72.91
72942;BME280;69665;55.822;37.330;2024-02-15T12:03:17;101113.44;;;-7.63;72.17
72942;BME280;69665;55.822;37.330;2024-02-15T12:06:02;101130.81;;;-7.58;72.71
72942;BME280;69665;55.822;37.330;2024-02-15T12:08:47;101138.41;;;-7.59;73.06
72942;BME280;69665;55.822;37.330;2024-02-15T12:11:32;101146.25;;;-7.56;73.37
72942;BME280;69665;55.822;37.330;2024-02-15T12:14:16;101140.44;;;-7.54;71.67
72942;BME280;69665;55.822;37.330;2024-02-15T12:17:01;101142.44;;;-7.48;71.33
72942;BME280;69665;55.822;37.330;2024-02-15T12:19:48;101131.78;;;-7.41;73.75
72942;BME280;69665;55.822;37.330;2024-02-15T12:22:16;101117.66;;;-7.49;71.96
72942;BME280;69665;55.822;37.330;2024-02-15T12:24:43;101121.72;;;-7.38;72.29
72942;BME280;69665;55.822;37.330;2024-02-15T12:27:09;101142.34;;;-7.20;72.88
72942;BME280;69665;55.822;37.330;2024-02-15T12:29:34;101135.69;;;-7.33;71.70
72942;BME280;69665;55.822;37.330;2024-02-15T12:32:00;101143.22;;;-7.20;71.48
72942;BME280;69665;55.822;37.330;2024-02-15T12:34:26;101126.91;;;-7.22;72.30
72942;BME280;69665;55.822;37.330;2024-02-15T12:37:04;101130.44;;;-7.20;72.22
72942;BME280;69665;55.822;37.330;2024-02-15T12:39:31;101112.19;;;-7.26;72.70
72942;BME280;69665;55.822;37.330;2024-02-15T12:41:57;101105.28;;;-7.27;73.59
72942;BME280;69665;55.822;37.330;2024-02-15T12:44:22;101106.63;;;-7.19;73.60
72942;BME280;69665;55.822;37.330;2024-02-15T12:46:56;101121.97;;;-7.19;72.51
72942;BME280;69665;55.822;37.330;2024-02-15T12:51:51;101140.75;;;-7.03;72.69
72942;BME280;69665;55.822;37.330;2024-02-15T12:54:21;101131.59;;;-7.14;72.00
72942;BME280;69665;55.822;37.330;2024-02-15T12:56:49;101125.50;;;-7.16;72.87
72942;BME280;69665;55.822;37.330;2024-02-15T12:59:18;101126.91;;;-7.22;72.58
72942;BME280;69665;55.822;37.330;2024-02-15T13:01:46;101137.41;;;-7.17;72.95
72942;BME280;69665;55.822;37.330;2024-02-15T13:04:24;101169.78;;;-7.18;72.21